createdAt,value
2018-12-17T00:00:00.642Z,45.1
2018-12-17T00:05:00.836Z,43.6
2018-12-17T00:10:00.643Z,44.5
2018-12-17T00:15:00.708Z,43.2
2018-12-17T00:20:00.660Z,43.8
2018-12-17T00:25:00.640Z,41.8
2018-12-17T00:30:01.323Z,42.8
2018-12-17T00:40:00.803Z,39.4
2018-12-17T00:45:00.657Z,39.8
2018-12-17T00:50:00.651Z,38.2
2018-12-17T00:55:00.780Z,38.3
2018-12-17T01:00:01.355Z,38.2
2018-12-17T01:05:02.054Z,39.4
2018-12-17T01:10:00.658Z,40.8
2018-12-17T01:15:00.720Z,42.6
2018-12-17T01:20:00.624Z,42.4
2018-12-17T01:25:00.819Z,43.4
2018-12-17T01:30:00.656Z,44.4
2018-12-17T01:35:00.788Z,41.2
2018-12-17T01:40:00.658Z,41.8
2018-12-17T01:45:00.718Z,41.5
2018-12-17T01:50:00.651Z,42.0
2018-12-17T01:55:01.124Z,41.8
2018-12-17T02:00:02.133Z,44.5
2018-12-17T02:05:00.751Z,43.4
2018-12-17T02:10:00.698Z,45.0
2018-12-17T02:15:00.757Z,43.4
2018-12-17T02:20:00.695Z,44.3
2018-12-17T02:25:01.336Z,42.6
2018-12-17T02:30:00.698Z,44.0
2018-12-17T02:35:00.757Z,40.3
2018-12-17T02:40:00.713Z,39.7
2018-12-17T02:45:00.767Z,38.7
2018-12-17T02:50:00.717Z,39.6
2018-12-17T02:55:01.609Z,38.1
2018-12-17T03:00:01.238Z,41.3
2018-12-17T03:05:00.813Z,41.4
2018-12-17T03:10:00.681Z,40.8
2018-12-17T03:15:00.755Z,40.4
2018-12-17T03:20:00.706Z,40.7
2018-12-17T03:25:00.844Z,39.2
2018-12-17T03:30:00.734Z,39.6
2018-12-17T03:35:00.817Z,40.0
2018-12-17T03:40:00.687Z,40.2
2018-12-17T03:45:01.804Z,40.3
2018-12-17T03:50:00.727Z,40.0
2018-12-17T03:55:00.961Z,38.4
2018-12-17T04:00:00.729Z,38.2
2018-12-17T04:05:00.804Z,37.9
2018-12-17T04:10:00.699Z,37.8
2018-12-17T04:15:00.765Z,37.1
2018-12-17T04:20:01.032Z,38.1
2018-12-17T04:25:00.855Z,37.7
2018-12-17T04:30:00.726Z,37.6
2018-12-17T04:35:00.704Z,37.5
2018-12-17T04:40:00.731Z,38.5
2018-12-17T04:45:00.807Z,39.5
2018-12-17T04:50:00.887Z,40.7
2018-12-17T04:55:01.265Z,41.0
2018-12-17T05:00:00.769Z,42.5
2018-12-17T05:05:00.770Z,42.8
2018-12-17T05:10:00.735Z,43.6
2018-12-17T05:15:00.811Z,43.2
2018-12-17T05:20:00.870Z,44.9
2018-12-17T05:25:00.814Z,44.6
2018-12-17T05:30:00.738Z,45.6
2018-12-17T05:35:00.862Z,44.7
2018-12-17T05:40:01.263Z,45.1
2018-12-17T05:45:00.800Z,43.6
2018-12-17T05:50:00.750Z,44.1
2018-12-17T05:55:00.811Z,44.0
2018-12-17T06:00:00.738Z,41.0
2018-12-17T06:05:00.829Z,42.2
2018-12-17T06:10:00.986Z,41.2
2018-12-17T06:15:00.750Z,40.0
2018-12-17T06:25:00.829Z,43.7
2018-12-17T06:30:05.730Z,43.3
2018-12-17T06:35:00.788Z,45.9
2018-12-17T06:40:00.730Z,45.7
2018-12-17T06:45:00.722Z,46.2
2018-12-17T06:50:00.729Z,45.0
2018-12-17T06:55:01.119Z,45.1
2018-12-17T07:00:02.178Z,43.7
2018-12-17T07:05:00.801Z,43.6
2018-12-17T07:10:00.721Z,42.2
2018-12-17T07:15:00.860Z,42.3
2018-12-17T07:20:00.737Z,42.0
2018-12-17T07:25:01.157Z,41.6
2018-12-17T07:30:00.738Z,42.0
2018-12-17T07:35:00.797Z,44.6
2018-12-17T07:40:01.145Z,45.2
2018-12-17T07:45:00.874Z,45.4
2018-12-17T07:50:00.736Z,47.4
2018-12-17T07:55:02.269Z,46.5
2018-12-17T08:00:00.754Z,45.2
2018-12-17T08:05:00.812Z,44.4
2018-12-17T08:10:00.769Z,44.6
2018-12-17T08:15:00.879Z,42.8
2018-12-17T08:20:00.758Z,42.9
2018-12-17T08:25:02.470Z,42.1
2018-12-17T08:30:04.345Z,43.9
2018-12-17T08:35:00.825Z,44.9
2018-12-17T08:40:00.759Z,45.9
2018-12-17T08:45:01.109Z,48.4
2018-12-17T08:50:02.283Z,49.5
2018-12-17T08:55:00.785Z,48.6
2018-12-17T09:00:00.771Z,47.1
2018-12-17T09:05:00.836Z,46.9
2018-12-17T09:10:00.772Z,46.4
2018-12-17T09:15:01.212Z,47.0
2018-12-17T09:20:01.386Z,47.1
2018-12-17T09:25:00.867Z,48.6
2018-12-17T09:30:00.807Z,49.2
2018-12-17T09:35:00.872Z,49.2
2018-12-17T09:40:00.884Z,48.2
2018-12-17T09:45:01.224Z,48.6
2018-12-17T09:50:00.782Z,48.0
2018-12-17T09:55:01.067Z,48.6
2018-12-17T10:00:00.852Z,48.7
2018-12-17T10:05:00.857Z,49.6
2018-12-17T10:10:00.787Z,50.6
2018-12-17T10:15:00.852Z,51.5
2018-12-17T10:20:00.791Z,51.7
2018-12-17T10:25:00.908Z,52.1
2018-12-17T10:30:00.802Z,53.1
2018-12-17T10:35:00.863Z,52.6
2018-12-17T10:40:00.801Z,53.2
2018-12-17T10:45:00.796Z,53.3
2018-12-17T10:50:00.813Z,53.4
2018-12-17T10:55:00.799Z,53.6
2018-12-17T11:00:00.802Z,53.2
2018-12-17T11:05:00.888Z,51.9
2018-12-17T11:10:00.805Z,50.9
2018-12-17T11:15:00.801Z,50.0
2018-12-17T11:20:01.029Z,48.6
2018-12-17T11:25:00.937Z,48.7
2018-12-17T11:30:00.817Z,48.0
2018-12-17T11:35:00.895Z,47.9
2018-12-17T11:40:00.820Z,48.0
2018-12-17T11:45:00.810Z,48.9
2018-12-17T11:50:00.816Z,49.4
2018-12-17T11:55:00.945Z,50.5
2018-12-17T12:00:00.828Z,50.6
2018-12-17T12:05:00.875Z,49.3
2018-12-17T12:10:01.182Z,49.0
2018-12-17T12:15:02.314Z,47.1
2018-12-17T12:20:00.827Z,45.6
2018-12-17T12:25:00.973Z,44.7
2018-12-17T12:30:00.834Z,46.6
2018-12-17T12:35:01.368Z,46.4
2018-12-17T12:40:01.188Z,47.6
2018-12-17T12:45:00.827Z,49.7
2018-12-17T12:50:00.833Z,51.1
2018-12-17T12:55:00.833Z,50.3
2018-12-17T13:00:00.837Z,50.3
2018-12-17T13:05:00.904Z,50.0
2018-12-17T13:10:00.839Z,48.3
2018-12-17T13:15:00.921Z,47.0
2018-12-17T13:20:00.854Z,46.9
2018-12-17T13:25:00.967Z,46.7
2018-12-17T13:30:01.049Z,47.0
2018-12-17T13:35:00.906Z,46.8
2018-12-17T13:40:01.141Z,47.8
2018-12-17T13:45:00.911Z,48.5
2018-12-17T13:50:00.848Z,48.4
2018-12-17T13:55:01.816Z,46.6
2018-12-17T14:00:00.852Z,44.0
2018-12-17T14:05:00.918Z,42.6
2018-12-17T14:10:00.857Z,41.1
2018-12-17T14:15:00.916Z,40.0
2018-12-17T14:20:00.854Z,40.9
2018-12-17T14:25:01.000Z,43.0
2018-12-17T14:30:02.885Z,43.1
2018-12-17T14:35:00.988Z,45.6
2018-12-17T14:40:00.862Z,46.1
2018-12-17T14:45:00.928Z,45.6
2018-12-17T14:50:01.068Z,46.2
2018-12-17T14:55:00.930Z,44.6
2018-12-17T15:00:00.871Z,41.7
2018-12-17T15:05:00.970Z,40.8
2018-12-17T15:10:00.867Z,41.2
2018-12-17T15:15:00.938Z,39.8
2018-12-17T15:20:00.874Z,41.2
2018-12-17T15:25:01.029Z,41.5
2018-12-17T15:30:00.877Z,42.4
2018-12-17T15:35:01.011Z,42.8
2018-12-17T15:40:00.880Z,43.7
2018-12-17T15:45:01.283Z,44.6
2018-12-17T15:50:00.883Z,44.6
2018-12-17T15:55:02.722Z,42.8
2018-12-17T16:00:00.925Z,41.4
2018-12-17T16:10:00.949Z,41.0
2018-12-17T16:15:00.949Z,41.3
2018-12-17T16:20:00.884Z,41.9
2018-12-17T16:25:00.948Z,41.2
2018-12-17T16:30:00.914Z,40.4
2018-12-17T16:35:00.897Z,40.5
2018-12-17T16:40:00.888Z,37.7
2018-12-17T16:45:01.297Z,37.8
2018-12-17T16:50:01.154Z,38.2
2018-12-17T16:55:00.893Z,36.1
2018-12-17T17:00:00.894Z,35.0
2018-12-17T17:05:01.026Z,36.8
2018-12-17T17:10:00.931Z,36.0
2018-12-17T17:15:01.063Z,35.0
2018-12-17T17:20:00.905Z,35.0
2018-12-17T17:25:00.971Z,34.3
2018-12-17T17:30:00.943Z,35.4
2018-12-17T17:35:01.350Z,36.2
2018-12-17T17:40:00.910Z,38.4
2018-12-17T17:45:00.976Z,39.4
2018-12-17T17:50:00.909Z,40.5
2018-12-17T17:55:00.977Z,39.9
2018-12-17T18:00:00.918Z,41.4
2018-12-17T18:05:00.911Z,40.6
2018-12-17T18:10:00.915Z,39.4
2018-12-17T18:15:01.045Z,42.1
2018-12-17T18:20:00.922Z,40.4
2018-12-17T18:25:00.982Z,39.8
2018-12-17T18:30:00.949Z,40.1
2018-12-17T18:35:01.075Z,42.4
2018-12-17T18:40:00.957Z,40.6
2018-12-17T18:45:01.056Z,43.0
2018-12-17T18:50:00.955Z,44.0
2018-12-17T18:55:00.998Z,43.1
2018-12-17T19:00:00.944Z,42.6
2018-12-17T19:05:01.394Z,43.0
2018-12-17T19:10:00.938Z,42.4
2018-12-17T19:15:01.063Z,41.1
2018-12-17T19:20:00.937Z,41.1
2018-12-17T19:25:01.003Z,41.2
2018-12-17T19:30:01.352Z,41.2
2018-12-17T19:35:01.391Z,41.0
2018-12-17T19:40:00.945Z,41.5
2018-12-17T19:45:01.068Z,43.7
2018-12-17T19:50:02.186Z,44.4
2018-12-17T19:55:00.949Z,46.4
2018-12-17T20:00:00.978Z,48.4
2018-12-17T20:05:01.107Z,48.9
2018-12-17T20:10:00.974Z,47.6
2018-12-17T20:15:01.061Z,46.4
2018-12-17T20:20:00.993Z,44.3
2018-12-17T20:25:01.155Z,41.6
2018-12-17T20:30:00.999Z,41.8
2018-12-17T20:35:01.152Z,42.6
2018-12-17T20:40:01.201Z,42.4
2018-12-17T20:45:00.998Z,42.5
2018-12-17T20:50:01.046Z,43.7
2018-12-17T20:55:01.058Z,42.4
2018-12-17T21:00:01.003Z,41.2
2018-12-17T21:05:01.137Z,41.2
2018-12-17T21:10:01.377Z,41.5
2018-12-17T21:15:01.098Z,40.6
2018-12-17T21:20:01.016Z,40.2
2018-12-17T21:25:05.978Z,40.9
2018-12-17T21:30:01.721Z,40.9
2018-12-17T21:35:01.041Z,41.3
2018-12-17T21:40:00.984Z,43.0
2018-12-17T21:45:00.986Z,42.9
2018-12-17T21:50:00.984Z,42.9
2018-12-17T21:55:01.415Z,43.1
2018-12-17T22:00:02.432Z,41.7
2018-12-17T22:05:01.051Z,40.2
2018-12-17T22:10:01.316Z,41.2
2018-12-17T22:15:01.225Z,40.4
2018-12-17T22:25:01.061Z,40.3
2018-12-17T22:30:00.998Z,38.6
2018-12-17T22:35:00.998Z,37.1
2018-12-17T22:40:00.997Z,34.6
2018-12-17T22:45:00.993Z,31.7
2018-12-17T22:50:02.252Z,29.2
2018-12-17T22:55:01.120Z,29.1
2018-12-17T23:00:01.237Z,30.8
2018-12-17T23:05:01.065Z,32.4
2018-12-17T23:10:01.001Z,34.8
2018-12-17T23:30:01.055Z,34.0
2018-12-17T23:35:01.004Z,34.5
2018-12-17T23:40:00.944Z,35.5
2018-12-17T23:45:01.077Z,34.9
2018-12-17T23:50:00.948Z,34.5
2018-12-17T23:55:01.010Z,35.6
